Time;durP1;ratioP1;P1;durP2;ratioP2;P2;SDS_P1;SDS_P2;PMS_P1;PMS_P2;Temp;Humidity;BMP_temperature;BMP_pressure;BME280_temperature;BME280_humidity;BME280_pressure;Samples;Min_cycle;Max_cycle;Signal;HPM_P1;HPM_P2
2023/03/12 00:00:39;;;;;;;7.93;7.30;;;2.60;99.90;;;;;;4917283;29;20227;-72
2023/03/12 00:03:07;;;;;;;7.55;7.10;;;2.60;99.90;;;;;;4922643;29;20634;-72
2023/03/12 00:05:37;;;;;;;7.30;6.70;;;2.70;99.90;;;;;;4921195;29;20680;-72
2023/03/12 00:08:05;;;;;;;7.57;7.05;;;2.70;99.90;;;;;;4919049;29;20201;-72
2023/03/12 00:10:34;;;;;;;8.45;7.60;;;2.80;99.90;;;;;;4921171;29;20623;-71
2023/03/12 00:13:04;;;;;;;8.05;7.25;;;2.70;99.90;;;;;;4918738;29;20776;-75
2023/03/12 00:15:32;;;;;;;8.73;7.85;;;2.60;99.90;;;;;;4915261;29;20231;-73
2023/03/12 00:18:00;;;;;;;8.20;7.57;;;2.60;99.90;;;;;;4917398;29;20227;-73
2023/03/12 00:20:28;;;;;;;7.38;6.75;;;2.60;99.90;;;;;;4922285;29;20221;-73
2023/03/12 00:22:56;;;;;;;7.50;7.00;;;2.60;99.90;;;;;;4921073;29;20203;-72
2023/03/12 00:25:24;;;;;;;7.97;7.20;;;2.60;99.90;;;;;;4914037;29;20980;-74
2023/03/12 00:27:52;;;;;;;8.05;7.25;;;2.60;99.90;;;;;;4912957;29;20303;-73
2023/03/12 00:30:22;;;;;;;9.90;8.63;;;2.40;99.90;;;;;;4909644;29;20320;-72
2023/03/12 00:32:50;;;;;;;8.77;8.07;;;2.50;99.90;;;;;;4913888;29;20202;-74
2023/03/12 00:35:18;;;;;;;7.90;7.20;;;2.50;99.90;;;;;;4912222;29;20585;-74
2023/03/12 00:37:46;;;;;;;7.22;6.63;;;2.50;99.90;;;;;;4910606;29;20862;-73
2023/03/12 00:40:14;;;;;;;8.68;7.53;;;2.50;99.90;;;;;;4913795;29;20234;-74
2023/03/12 00:42:42;;;;;;;10.02;8.27;;;2.40;99.90;;;;;;4912435;29;20201;-73
2023/03/12 00:45:11;;;;;;;9.02;8.27;;;2.40;99.90;;;;;;4910495;29;20300;-74
2023/03/12 00:47:41;;;;;;;8.43;7.72;;;2.40;99.90;;;;;;4915288;29;20448;-73
2023/03/12 00:50:10;;;;;;;8.07;7.28;;;2.40;99.90;;;;;;4914075;29;20227;-75
2023/03/12 00:52:38;;;;;;;8.35;7.55;;;2.40;99.90;;;;;;4909991;29;20707;-72
2023/03/12 00:55:06;;;;;;;8.20;7.45;;;2.40;99.90;;;;;;4915046;29;20218;-75
2023/03/12 00:57:35;;;;;;;8.20;7.40;;;2.40;99.90;;;;;;4919470;29;20214;-75
2023/03/12 01:00:05;;;;;;;7.55;7.05;;;2.40;99.90;;;;;;4920014;29;20230;-75
2023/03/12 01:02:33;;;;;;;8.15;7.47;;;2.40;99.90;;;;;;4919667;29;20218;-73
2023/03/12 01:05:03;;;;;;;10.00;7.95;;;2.40;99.90;;;;;;4919166;29;20203;-72
2023/03/12 01:07:32;;;;;;;7.85;7.25;;;2.50;99.90;;;;;;4918057;29;20234;-75
2023/03/12 01:10:00;;;;;;;8.25;7.65;;;2.50;99.90;;;;;;4917580;29;20262;-74
2023/03/12 01:12:31;;;;;;;9.70;7.82;;;2.60;99.90;;;;;;4919819;29;20209;-77
2023/03/12 01:14:59;;;;;;;10.23;8.07;;;2.60;99.90;;;;;;4918226;29;20245;-73
2023/03/12 01:17:27;;;;;;;10.77;9.30;;;2.60;99.90;;;;;;4921018;29;20579;-74
2023/03/12 01:19:55;;;;;;;8.73;7.95;;;2.70;99.90;;;;;;4918559;29;20713;-77
2023/03/12 01:22:25;;;;;;;8.95;8.05;;;2.70;99.90;;;;;;4917179;29;20730;-75
2023/03/12 01:24:53;;;;;;;10.10;9.20;;;2.70;99.90;;;;;;4918132;29;20190;-75
2023/03/12 01:27:21;;;;;;;13.65;10.40;;;2.80;99.90;;;;;;4920150;29;20230;-76
2023/03/12 01:29:49;;;;;;;12.07;10.27;;;2.80;99.90;;;;;;4919740;29;20306;-76
2023/03/12 01:32:17;;;;;;;11.68;10.70;;;2.80;99.90;;;;;;4920100;29;20203;-75
2023/03/12 01:34:45;;;;;;;12.60;9.93;;;2.80;99.90;;;;;;4920749;29;20233;-73
2023/03/12 01:37:16;;;;;;;10.40;9.60;;;2.80;99.90;;;;;;4916749;29;20288;-75
2023/03/12 01:39:45;;;;;;;11.88;10.68;;;2.90;99.90;;;;;;4917870;29;20368;-76
2023/03/12 01:42:13;;;;;;;12.45;10.80;;;2.90;99.90;;;;;;4916803;29;20211;-74
2023/03/12 01:44:52;;;;;;;14.35;11.85;;;2.90;99.90;;;;;;4918992;29;20285;-72
2023/03/12 01:47:20;;;;;;;12.30;10.32;;;2.90;99.90;;;;;;4922919;29;20710;-75
2023/03/12 01:49:50;;;;;;;11.30;10.30;;;2.90;99.90;;;;;;4915124;29;20229;-76
2023/03/12 01:52:22;;;;;;;12.25;9.90;;;2.90;99.90;;;;;;4917909;29;20727;-75
2023/03/12 01:54:56;;;;;;;10.98;9.82;;;2.90;99.90;;;;;;4918198;29;20214;-76
2023/03/12 01:57:31;;;;;;;10.50;9.10;;;2.80;99.90;;;;;;4918576;29;20211;-76
2023/03/12 02:00:03;;;;;;;10.30;9.30;;;2.90;99.90;;;;;;4917806;29;20237;-75
2023/03/12 02:02:32;;;;;;;10.45;9.55;;;3.00;99.90;;;;;;4918042;29;20663;-73
2023/03/12 02:05:10;;;;;;;9.68;9.07;;;3.10;99.90;;;;;;4920560;29;20215;-75
2023/03/12 02:07:39;;;;;;;10.70;9.65;;;3.00;99.90;;;;;;4917553;29;20202;-75
2023/03/12 02:10:09;;;;;;;10.00;9.30;;;3.00;99.90;;;;;;4916413;29;20307;-73
2023/03/12 02:12:37;;;;;;;9.98;9.27;;;3.00;99.90;;;;;;4917001;29;20254;-72
2023/03/12 02:15:07;;;;;;;9.57;8.82;;;2.90;99.90;;;;;;4918136;29;20663;-73
2023/03/12 02:17:36;;;;;;;8.18;7.55;;;2.90;99.90;;;;;;4921549;29;20206;-76
2023/03/12 02:20:15;;;;;;;8.63;7.80;;;2.90;99.90;;;;;;4915112;29;20227;-77
2023/03/12 02:22:48;;;;;;;9.10;8.40;;;2.90;99.90;;;;;;4913826;29;20316;-74
2023/03/12 02:25:29;;;;;;;9.27;8.30;;;3.00;99.90;;;;;;4911682;29;20774;-74
2023/03/12 02:27:59;;;;;;;9.55;8.90;;;3.00;99.90;;;;;;4915988;29;20203;-74
2023/03/12 02:30:29;;;;;;;9.70;8.70;;;3.00;99.90;;;;;;4912932;29;20232;-73
2023/03/12 02:33:01;;;;;;;9.15;8.45;;;3.00;99.90;;;;;;4914127;29;21361;-72
2023/03/12 02:35:29;;;;;;;11.65;8.35;;;2.90;99.90;;;;;;4916894;29;20223;-73
2023/03/12 02:37:57;;;;;;;9.15;8.35;;;3.00;99.90;;;;;;4913574;29;20289;-76
2023/03/12 02:40:31;;;;;;;7.80;7.15;;;3.00;99.90;;;;;;4914823;29;20238;-75
2023/03/12 02:43:00;;;;;;;6.65;6.28;;;3.00;99.90;;;;;;4920720;29;20210;-74
2023/03/12 02:45:29;;;;;;;6.75;6.15;;;3.10;99.90;;;;;;4917028;29;20207;-75
2023/03/12 02:47:57;;;;;;;6.72;6.20;;;3.20;99.90;;;;;;4915090;29;20208;-76
2023/03/12 02:50:25;;;;;;;5.93;5.53;;;3.30;99.90;;;;;;4915035;29;20313;-73
2023/03/12 02:52:53;;;;;;;7.03;6.55;;;3.40;99.90;;;;;;4917514;29;20939;-76
2023/03/12 02:55:21;;;;;;;6.80;6.20;;;3.50;99.90;;;;;;4917909;29;20215;-75
2023/03/12 02:57:51;;;;;;;7.18;6.68;;;3.50;99.90;;;;;;4917524;29;20220;-72
2023/03/12 03:00:20;;;;;;;7.88;7.47;;;3.50;99.90;;;;;;4913993;29;20231;-74
2023/03/12 03:02:48;;;;;;;7.28;6.82;;;3.40;99.90;;;;;;4918054;29;20277;-74
2023/03/12 03:05:16;;;;;;;5.25;4.95;;;3.40;99.90;;;;;;4920757;29;20206;-76
2023/03/12 03:07:44;;;;;;;6.07;5.68;;;3.40;99.90;;;;;;4920981;29;20203;-76
2023/03/12 03:10:14;;;;;;;6.03;5.60;;;3.50;99.90;;;;;;4922917;29;20228;-75
2023/03/12 03:12:42;;;;;;;5.57;5.18;;;3.50;99.90;;;;;;4917373;29;20213;-77
2023/03/12 03:15:12;;;;;;;5.70;5.30;;;3.60;99.90;;;;;;4922240;29;20211;-74
2023/03/12 03:17:40;;;;;;;7.38;5.35;;;3.60;99.90;;;;;;4920627;29;20223;-76
2023/03/12 03:20:10;;;;;;;5.30;4.90;;;3.60;99.90;;;;;;4915393;29;20219;-72
2023/03/12 03:22:39;;;;;;;5.40;4.90;;;3.60;99.90;;;;;;4919465;29;20212;-73
2023/03/12 03:25:09;;;;;;;5.05;4.65;;;3.70;99.90;;;;;;4918759;29;20294;-75
2023/03/12 03:27:38;;;;;;;5.35;4.85;;;3.70;99.90;;;;;;4917527;29;20208;-74
2023/03/12 03:30:07;;;;;;;5.50;5.10;;;3.70;99.90;;;;;;4918718;29;20236;-75
2023/03/12 03:32:38;;;;;;;4.82;4.50;;;3.80;99.90;;;;;;4919975;29;20203;-75
2023/03/12 03:35:07;;;;;;;5.00;4.60;;;3.80;99.90;;;;;;4919392;29;20323;-73
2023/03/12 03:37:35;;;;;;;5.50;5.10;;;3.80;99.90;;;;;;4919541;29;20235;-75
2023/03/12 03:40:05;;;;;;;4.82;4.40;;;3.90;99.90;;;;;;4916650;29;20224;-74
2023/03/12 03:42:33;;;;;;;5.88;5.57;;;3.90;99.90;;;;;;4916635;29;20553;-75
2023/03/12 03:45:01;;;;;;;5.03;4.75;;;4.00;99.90;;;;;;4918506;29;20235;-76
2023/03/12 03:47:29;;;;;;;5.68;5.22;;;3.90;99.90;;;;;;4919101;29;20204;-73
2023/03/12 03:49:58;;;;;;;5.97;5.57;;;3.90;99.90;;;;;;4920118;29;20286;-75
2023/03/12 03:52:26;;;;;;;6.15;5.25;;;3.90;99.90;;;;;;4922700;29;20195;-76
2023/03/12 03:54:55;;;;;;;5.72;5.35;;;4.00;99.90;;;;;;4919343;29;20299;-75
2023/03/12 03:57:23;;;;;;;5.88;5.38;;;4.10;99.90;;;;;;4919065;29;20213;-73
2023/03/12 03:59:52;;;;;;;5.35;5.05;;;4.20;99.90;;;;;;4920747;29;20256;-74
2023/03/12 04:02:20;;;;;;;8.13;5.35;;;4.20;99.90;;;;;;4920807;29;20277;-73
2023/03/12 04:04:49;;;;;;;6.15;5.75;;;4.10;99.90;;;;;;4920114;29;20212;-76
2023/03/12 04:07:20;;;;;;;5.90;5.40;;;4.10;99.90;;;;;;4920142;29;20199;-75
2023/03/12 04:09:48;;;;;;;6.22;5.68;;;4.00;99.90;;;;;;4920708;29;21053;-75
2023/03/12 04:12:16;;;;;;;5.50;5.30;;;4.10;99.90;;;;;;4921482;29;20316;-72
2023/03/12 04:14:44;;;;;;;5.68;5.28;;;4.20;99.90;;;;;;4917134;29;20243;-73
2023/03/12 04:17:12;;;;;;;9.75;5.50;;;4.10;99.90;;;;;;4918012;29;20223;-75
2023/03/12 04:19:40;;;;;;;5.75;5.35;;;4.10;99.90;;;;;;4921753;29;20639;-74
2023/03/12 04:22:08;;;;;;;5.35;4.95;;;4.10;99.90;;;;;;4919840;29;20280;-76
2023/03/12 04:24:38;;;;;;;5.43;5.10;;;4.20;99.90;;;;;;4919762;29;20258;-75
2023/03/12 04:27:06;;;;;;;5.32;4.90;;;4.10;99.90;;;;;;4919854;29;20198;-73
2023/03/12 04:29:34;;;;;;;6.68;5.88;;;4.20;99.90;;;;;;4919579;29;20251;-74
2023/03/12 04:32:05;;;;;;;6.10;5.75;;;4.20;99.90;;;;;;4918796;29;20197;-72
2023/03/12 04:34:33;;;;;;;6.10;5.70;;;4.20;99.90;;;;;;4918183;29;20206;-74
2023/03/12 04:37:02;;;;;;;5.90;5.40;;;4.30;99.90;;;;;;4919246;29;20225;-75
2023/03/12 04:39:30;;;;;;;5.85;5.55;;;4.40;99.90;;;;;;4918331;29;20243;-71
2023/03/12 04:41:59;;;;;;;5.72;5.45;;;4.30;99.90;;;;;;4919017;29;20197;-72
2023/03/12 04:44:27;;;;;;;6.25;5.65;;;4.20;99.90;;;;;;4919729;29;20207;-74
2023/03/12 04:46:55;;;;;;;6.22;5.80;;;4.20;99.90;;;;;;4919067;29;20219;-74
2023/03/12 04:49:23;;;;;;;5.70;5.18;;;4.30;99.90;;;;;;4919630;29;20705;-74
2023/03/12 04:51:51;;;;;;;5.28;4.97;;;4.30;99.90;;;;;;4915859;29;20206;-73
2023/03/12 04:54:21;;;;;;;7.05;6.35;;;4.30;99.90;;;;;;4917282;29;20199;-74
2023/03/12 04:56:50;;;;;;;6.97;6.47;;;4.30;99.90;;;;;;4922398;29;20698;-74
2023/03/12 04:59:19;;;;;;;7.03;6.32;;;4.40;99.90;;;;;;4920751;29;20243;-74
2023/03/12 05:01:47;;;;;;;6.85;6.43;;;4.40;99.90;;;;;;4912440;29;20205;-73
2023/03/12 05:04:15;;;;;;;6.05;5.78;;;4.50;99.90;;;;;;4917929;29;20240;-73
2023/03/12 05:06:43;;;;;;;6.90;6.32;;;4.50;99.90;;;;;;4920237;29;20259;-73
2023/03/12 05:09:11;;;;;;;6.72;6.28;;;4.40;99.90;;;;;;4919780;29;20305;-74
2023/03/12 05:11:39;;;;;;;6.18;5.78;;;4.40;99.90;;;;;;4920229;29;20223;-72
2023/03/12 05:14:09;;;;;;;5.90;5.70;;;4.40;99.90;;;;;;4914797;29;20201;-72
2023/03/12 05:16:38;;;;;;;6.38;6.07;;;4.50;99.90;;;;;;4922600;29;20204;-73
2023/03/12 05:19:06;;;;;;;6.90;6.43;;;4.50;99.90;;;;;;4918029;29;20206;-73
2023/03/12 05:21:34;;;;;;;5.85;5.55;;;4.50;99.90;;;;;;4914461;29;20222;-74
2023/03/12 05:24:02;;;;;;;6.50;6.10;;;4.40;99.90;;;;;;4919156;29;20217;-74
2023/03/12 05:26:33;;;;;;;7.57;7.03;;;4.40;99.90;;;;;;4916074;29;20204;-73
2023/03/12 05:29:02;;;;;;;7.13;6.80;;;4.40;99.90;;;;;;4919849;29;20208;-73
2023/03/12 05:31:33;;;;;;;8.05;7.35;;;4.50;99.90;;;;;;4918630;29;20213;-73
2023/03/12 05:34:04;;;;;;;6.53;6.15;;;4.50;99.90;;;;;;4917776;29;20291;-75
2023/03/12 05:36:33;;;;;;;6.13;5.72;;;4.60;99.90;;;;;;4914550;29;20300;-73
2023/03/12 05:39:01;;;;;;;7.38;6.88;;;4.60;99.90;;;;;;4917157;29;20274;-72
2023/03/12 05:41:29;;;;;;;8.43;7.55;;;4.50;99.90;;;;;;4914969;29;20221;-73
2023/03/12 05:43:58;;;;;;;7.22;6.78;;;4.60;99.90;;;;;;4913521;29;20203;-73
2023/03/12 05:46:27;;;;;;;6.20;5.80;;;4.80;99.90;;;;;;4914393;29;20606;-75
2023/03/12 05:48:55;;;;;;;6.78;6.32;;;4.80;99.90;;;;;;4917045;29;20279;-74
2023/03/12 05:51:25;;;;;;;7.35;6.80;;;4.80;99.90;;;;;;4917882;29;20590;-74
2023/03/12 05:53:53;;;;;;;6.32;5.70;;;4.80;99.90;;;;;;4918456;29;20203;-73
2023/03/12 05:56:21;;;;;;;6.43;6.05;;;4.80;99.90;;;;;;4920282;29;20272;-74
2023/03/12 05:58:49;;;;;;;6.63;6.22;;;4.70;99.90;;;;;;4916919;29;20265;-74
2023/03/12 06:01:21;;;;;;;6.75;6.35;;;4.70;99.90;;;;;;4919941;29;20246;-74
2023/03/12 06:03:49;;;;;;;7.53;6.50;;;4.70;99.90;;;;;;4919309;29;20208;-74
2023/03/12 06:06:18;;;;;;;6.30;5.90;;;4.70;99.90;;;;;;4915840;29;20220;-73
2023/03/12 06:08:48;;;;;;;6.53;6.15;;;4.60;99.90;;;;;;4916169;29;20216;-73
2023/03/12 06:11:16;;;;;;;6.20;5.85;;;4.70;99.90;;;;;;4915883;29;20240;-73
2023/03/12 06:13:44;;;;;;;6.93;6.65;;;4.70;99.90;;;;;;4917528;29;20591;-74
2023/03/12 06:16:17;;;;;;;6.38;6.07;;;4.80;99.90;;;;;;4920300;29;20211;-72
2023/03/12 06:18:46;;;;;;;6.45;6.05;;;4.80;99.90;;;;;;4916566;29;20737;-73
2023/03/12 06:21:16;;;;;;;7.38;6.70;;;4.80;99.90;;;;;;4915724;29;20239;-73
2023/03/12 06:23:47;;;;;;;7.60;7.30;;;4.80;99.90;;;;;;4919119;29;20216;-74
2023/03/12 06:26:16;;;;;;;7.32;6.90;;;4.80;99.90;;;;;;4914924;29;20210;-73
2023/03/12 06:28:45;;;;;;;7.78;7.18;;;4.80;99.90;;;;;;4915390;29;20205;-73
2023/03/12 06:31:14;;;;;;;7.80;7.05;;;4.80;99.90;;;;;;4918828;29;20249;-75
2023/03/12 06:33:42;;;;;;;8.05;7.45;;;4.80;99.90;;;;;;4899975;29;20213;-73
2023/03/12 06:36:11;;;;;;;7.13;6.82;;;4.80;99.90;;;;;;4918341;29;20208;-75
2023/03/12 06:38:40;;;;;;;7.82;7.07;;;4.80;99.90;;;;;;4913659;29;20248;-71
2023/03/12 06:41:12;;;;;;;8.00;7.57;;;4.80;1.00;;;;;;4912909;29;20269;-73
2023/03/12 06:43:40;;;;;;;7.53;6.80;;;4.80;1.00;;;;;;4913376;29;20456;-75
2023/03/12 06:46:12;;;;;;;8.60;8.00;;;4.80;1.00;;;;;;4918792;29;20208;-73
2023/03/12 06:48:41;;;;;;;7.97;7.55;;;4.80;1.00;;;;;;4916650;29;20213;-73
2023/03/12 06:51:10;;;;;;;10.25;8.52;;;4.70;1.00;;;;;;4914053;29;20280;-75
2023/03/12 06:53:38;;;;;;;8.17;7.70;;;4.80;1.00;;;;;;4914050;29;20205;-74
2023/03/12 06:56:11;;;;;;;8.68;8.07;;;4.80;1.00;;;;;;4917043;29;20466;-75
2023/03/12 06:58:39;;;;;;;8.05;7.68;;;4.80;1.00;;;;;;4918257;29;20218;-75
2023/03/12 07:01:08;;;;;;;7.53;7.20;;;4.90;1.00;;;;;;4920981;29;20235;-74
2023/03/12 07:03:36;;;;;;;7.57;7.28;;;4.80;1.00;;;;;;4917331;29;20770;-74
2023/03/12 07:06:05;;;;;;;7.82;7.32;;;4.90;1.00;;;;;;4918882;29;20304;-74
2023/03/12 07:08:33;;;;;;;8.32;7.78;;;4.90;1.00;;;;;;4914459;29;20197;-75
2023/03/12 07:11:02;;;;;;;7.75;7.35;;;4.90;1.00;;;;;;4917933;29;20232;-76
2023/03/12 07:13:31;;;;;;;7.90;7.50;;;4.80;20.30;;;;;;4916545;29;20223;-76
2023/03/12 07:15:59;;;;;;;8.38;7.88;;;4.90;1.00;;;;;;4919217;29;20223;-75
2023/03/12 07:18:28;;;;;;;8.00;7.50;;;4.90;99.90;;;;;;4916523;29;20224;-76
2023/03/12 07:20:56;;;;;;;9.02;8.52;;;4.90;39.30;;;;;;4917401;29;20311;-74
2023/03/12 07:23:24;;;;;;;8.63;7.95;;;4.80;95.80;;;;;;4918195;29;20204;-76
2023/03/12 07:25:52;;;;;;;8.35;7.85;;;4.90;92.20;;;;;;4914224;29;20698;-74
2023/03/12 07:28:21;;;;;;;8.98;8.43;;;4.90;90.90;;;;;;4914273;29;20198;-74
2023/03/12 07:30:51;;;;;;;7.93;7.43;;;4.90;26.50;;;;;;4910770;29;20231;-75
2023/03/12 07:33:21;;;;;;;8.63;7.88;;;4.90;89.10;;;;;;4909430;29;20219;-76
2023/03/12 07:35:49;;;;;;;8.60;8.20;;;5.00;1.00;;;;;;4910043;29;20467;-79
2023/03/12 07:38:19;;;;;;;9.05;8.50;;;5.00;8.00;;;;;;4917570;29;20461;-77
2023/03/12 07:40:50;;;;;;;7.68;7.38;;;5.00;99.90;;;;;;4907589;29;20257;-77
2023/03/12 07:43:19;;;;;;;8.93;8.40;;;5.00;99.00;;;;;;4907895;29;20291;-77
2023/03/12 07:45:48;;;;;;;8.13;7.70;;;5.00;99.90;;;;;;4917677;29;20217;-76
2023/03/12 07:48:18;;;;;;;8.40;7.90;;;5.10;99.90;;;;;;4915263;29;20208;-77
2023/03/12 07:50:48;;;;;;;8.10;7.70;;;5.10;99.90;;;;;;4918533;29;20232;-75
2023/03/12 07:53:16;;;;;;;9.55;8.85;;;5.20;99.90;;;;;;4919844;29;20592;-77
2023/03/12 07:55:45;;;;;;;9.20;8.70;;;5.20;99.90;;;;;;4921997;29;20220;-76
2023/03/12 07:58:14;;;;;;;9.27;8.70;;;5.20;99.90;;;;;;4919793;29;20500;-77
2023/03/12 08:00:42;;;;;;;9.53;9.13;;;5.30;99.90;;;;;;4918158;29;20468;-79
2023/03/12 08:03:11;;;;;;;9.38;8.85;;;5.40;99.90;;;;;;4921540;29;20464;-77
2023/03/12 08:05:41;;;;;;;10.82;10.13;;;5.30;99.90;;;;;;4917685;29;20571;-76
2023/03/12 08:08:10;;;;;;;10.77;10.07;;;5.40;99.90;;;;;;4920003;29;20253;-76
2023/03/12 08:10:38;;;;;;;11.30;10.50;;;5.60;99.90;;;;;;4914041;29;20222;-74
2023/03/12 08:13:06;;;;;;;11.38;10.25;;;5.60;99.90;;;;;;4916941;29;20209;-78
2023/03/12 08:15:34;;;;;;;12.20;11.30;;;5.50;1.00;;;;;;4919931;29;21026;-78
2023/03/12 08:18:03;;;;;;;11.18;10.57;;;5.50;1.00;;;;;;4917578;29;20469;-75
2023/03/12 08:20:31;;;;;;;11.20;10.60;;;5.60;99.90;;;;;;4919657;29;20252;-77
2023/03/12 08:23:00;;;;;;;11.63;10.93;;;5.60;99.90;;;;;;4916872;29;20275;-76
2023/03/12 08:25:29;;;;;;;10.55;10.00;;;5.60;99.90;;;;;;4915507;29;20255;-74
2023/03/12 08:27:57;;;;;;;12.23;11.52;;;5.70;99.90;;;;;;4916956;29;20198;-74
2023/03/12 08:30:25;;;;;;;11.95;11.25;;;5.70;1.00;;;;;;4916480;29;20332;-79
2023/03/12 08:32:57;;;;;;;11.87;11.17;;;5.80;99.90;;;;;;4917530;29;20676;-73
2023/03/12 08:35:25;;;;;;;12.27;11.60;;;5.80;99.90;;;;;;4913724;29;20450;-76
2023/03/12 08:37:55;;;;;;;12.70;11.80;;;6.00;99.90;;;;;;4913841;29;20209;-76
2023/03/12 08:40:25;;;;;;;12.97;12.17;;;6.10;1.00;;;;;;4918286;29;20555;-74
2023/03/12 08:42:53;;;;;;;13.60;12.80;;;6.20;99.90;;;;;;4914704;29;20445;-74
2023/03/12 08:45:21;;;;;;;13.20;12.50;;;6.40;1.00;;;;;;4913389;29;20990;-78
2023/03/12 08:47:49;;;;;;;14.80;13.67;;;6.50;1.00;;;;;;4916017;29;20492;-77
2023/03/12 08:50:19;;;;;;;14.87;13.97;;;6.60;1.00;;;;;;4915045;29;20499;-76
2023/03/12 08:52:47;;;;;;;13.83;12.90;;;6.60;99.90;;;;;;4913732;29;20561;-75
2023/03/12 08:55:15;;;;;;;14.50;13.70;;;6.60;1.00;;;;;;4922259;29;20453;-76
2023/03/12 08:57:45;;;;;;;13.63;12.87;;;6.60;94.90;;;;;;4923496;29;20469;-76
2023/03/12 09:00:16;;;;;;;14.67;13.57;;;6.60;38.10;;;;;;4921784;29;20491;-75
2023/03/12 09:02:45;;;;;;;14.70;13.80;;;6.50;1.00;;;;;;4922669;29;21106;-76
2023/03/12 09:05:14;;;;;;;14.97;13.87;;;6.60;1.00;;;;;;4924846;29;20475;-76
2023/03/12 09:07:44;;;;;;;15.17;14.27;;;6.60;99.90;;;;;;4925422;29;20477;-75
2023/03/12 09:10:12;;;;;;;14.67;13.97;;;6.70;99.90;;;;;;4911540;29;20481;-76
2023/03/12 09:12:41;;;;;;;13.93;13.17;;;6.70;1.00;;;;;;4916149;29;20446;-74
2023/03/12 09:15:11;;;;;;;14.63;13.63;;;6.70;11.30;;;;;;4917525;29;20813;-78
2023/03/12 09:17:39;;;;;;;14.43;13.53;;;6.80;99.90;;;;;;4920025;29;20465;-78
2023/03/12 09:20:12;;;;;;;14.00;13.30;;;7.00;99.90;;;;;;4913463;29;20489;-77
2023/03/12 09:22:41;;;;;;;14.47;13.77;;;7.10;99.90;;;;;;4912881;29;20457;-75
2023/03/12 09:25:11;;;;;;;15.50;14.73;;;7.00;99.90;;;;;;4909149;29;20450;-75
2023/03/12 09:27:40;;;;;;;15.50;14.70;;;7.20;99.90;;;;;;4918517;29;20446;-74
2023/03/12 09:30:12;;;;;;;15.57;14.73;;;7.30;99.90;;;;;;4920134;29;20485;-77
2023/03/12 09:32:40;;;;;;;15.50;14.80;;;7.40;99.90;;;;;;4919346;29;20466;-75
2023/03/12 09:35:09;;;;;;;16.10;15.30;;;7.50;67.70;;;;;;4920108;29;20466;-74
2023/03/12 09:37:37;;;;;;;15.30;14.70;;;7.50;22.00;;;;;;4922780;29;20580;-78
2023/03/12 09:40:07;;;;;;;14.80;14.20;;;7.50;99.90;;;;;;4921005;29;20579;-78
2023/03/12 09:42:41;;;;;;;15.17;14.47;;;7.50;99.90;;;;;;4921140;29;20481;-74
2023/03/12 09:45:17;;;;;;;15.57;14.80;;;7.50;99.90;;;;;;4917000;29;20521;-77
2023/03/12 09:47:49;;;;;;;15.23;14.47;;;7.50;1.00;;;;;;4920689;29;20911;-78
2023/03/12 09:50:27;;;;;;;15.47;14.77;;;7.50;1.00;;;;;;4920126;29;21113;-75
2023/03/12 09:53:00;;;;;;;15.73;15.00;;;7.60;1.00;;;;;;4922725;29;21007;-77
2023/03/12 09:55:35;;;;;;;15.37;14.77;;;7.60;1.00;;;;;;4920082;29;20458;-77
2023/03/12 09:58:03;;;;;;;15.20;14.60;;;7.70;1.00;;;;;;4922040;29;20472;-77
2023/03/12 10:00:35;;;;;;;15.30;14.60;;;7.80;1.00;;;;;;4920558;29;20487;-77
2023/03/12 10:03:31;;;;;;;15.73;15.03;;;7.80;1.00;;;;;;4919457;29;20465;-76
2023/03/12 10:06:08;;;;;;;15.83;15.23;;;7.80;1.00;;;;;;4904620;29;20470;-78
2023/03/12 10:08:47;;;;;;;18.43;17.40;;;8.10;1.00;;;;;;4918673;29;20475;-74
2023/03/12 10:11:29;;;;;;;16.80;16.03;;;8.30;1.00;;;;;;4918865;29;20491;-75
2023/03/12 10:14:12;;;;;;;15.33;14.83;;;8.40;99.90;;;;;;4923741;29;20455;-76
2023/03/12 10:17:06;;;;;;;14.90;14.30;;;8.40;1.00;;;;;;4917192;29;20518;-74
2023/03/12 10:19:52;;;;;;;15.67;14.97;;;8.40;1.00;;;;;;4921772;29;20536;-77
2023/03/12 10:22:33;;;;;;;15.57;14.90;;;8.40;1.00;;;;;;4919283;29;20454;-77
2023/03/12 10:25:08;;;;;;;15.40;14.80;;;8.40;1.00;;;;;;4916770;29;20463;-76
2023/03/12 10:27:36;;;;;;;15.37;14.77;;;8.30;1.00;;;;;;4919600;29;20531;-76
2023/03/12 10:30:16;;;;;;;15.03;14.47;;;8.30;1.00;;;;;;4919847;29;20472;-77
2023/03/12 10:32:49;;;;;;;15.07;14.50;;;8.40;1.00;;;;;;4923300;29;20472;-78
2023/03/12 10:35:19;;;;;;;14.80;14.30;;;8.40;1.00;;;;;;4916155;29;20485;-78
2023/03/12 10:37:52;;;;;;;14.47;14.03;;;8.40;1.00;;;;;;4903981;29;20898;-77
2023/03/12 10:40:23;;;;;;;14.90;14.40;;;8.60;1.00;;;;;;4917955;29;21094;-77
2023/03/12 10:42:51;;;;;;;14.30;13.90;;;8.60;1.00;;;;;;4920750;29;20571;-77
2023/03/12 10:45:29;;;;;;;14.17;13.77;;;8.60;1.00;;;;;;4919716;29;20527;-77
2023/03/12 10:48:02;;;;;;;14.83;14.43;;;8.60;1.00;;;;;;4918367;29;20466;-78
2023/03/12 10:50:33;;;;;;;15.30;14.80;;;8.80;1.00;;;;;;4919806;29;20484;-77
2023/03/12 10:53:20;;;;;;;15.77;15.27;;;9.70;1.00;;;;;;4918638;29;20474;-77
2023/03/12 10:55:59;;;;;;;16.13;15.43;;;10.30;1.00;;;;;;4918899;29;20459;-77
2023/03/12 10:58:33;;;;;;;16.23;15.73;;;10.30;39.70;;;;;;4919855;29;21167;-75
2023/03/12 11:01:03;;;;;;;15.70;15.20;;;10.60;99.90;;;;;;4919782;29;20497;-78
2023/03/12 11:03:33;;;;;;;15.57;15.07;;;10.60;99.90;;;;;;4920058;29;20461;-77
2023/03/12 11:06:03;;;;;;;14.53;14.13;;;10.30;1.00;;;;;;4916458;29;20523;-77
2023/03/12 11:08:34;;;;;;;14.03;13.60;;;10.20;99.90;;;;;;4920894;29;20465;-77
2023/03/12 11:11:03;;;;;;;14.80;14.40;;;10.10;1.00;;;;;;4918747;29;21232;-78
2023/03/12 11:13:34;;;;;;;15.53;14.70;;;10.40;55.50;;;;;;4906713;29;20902;-77
2023/03/12 11:16:21;;;;;;;15.00;14.67;;;10.60;99.90;;;;;;4917825;29;20469;-77
2023/03/12 11:18:58;;;;;;;15.37;14.97;;;10.90;99.90;;;;;;4914006;29;20512;-74
2023/03/12 11:21:26;;;;;;;15.57;14.87;;;11.10;32.20;;;;;;4901260;29;20487;-75
2023/03/12 11:24:07;;;;;;;14.73;14.33;;;11.20;99.90;;;;;;4907126;29;20459;-75
2023/03/12 11:26:42;;;;;;;14.80;14.40;;;10.90;1.00;;;;;;4916930;29;21563;-76
2023/03/12 11:29:21;;;;;;;15.80;14.83;;;10.70;99.90;;;;;;4907705;29;20576;-76
2023/03/12 11:31:57;;;;;;;14.97;14.37;;;10.60;17.20;;;;;;4917037;29;20535;-77
2023/03/12 11:34:30;;;;;;;14.70;14.30;;;10.40;99.90;;;;;;4914099;29;20458;-76
2023/03/12 11:37:07;;;;;;;14.80;14.30;;;10.40;99.90;;;;;;4912620;29;20467;-74
2023/03/12 11:39:49;;;;;;;14.63;14.13;;;10.30;99.90;;;;;;4916037;29;20476;-76
2023/03/12 11:42:40;;;;;;;15.23;14.80;;;10.50;99.90;;;;;;4911693;29;20498;-76
2023/03/12 11:45:18;;;;;;;15.33;14.93;;;10.40;1.00;;;;;;4917490;29;20470;-76
2023/03/12 11:47:59;;;;;;;16.00;15.37;;;10.40;99.90;;;;;;4916419;29;20468;-75
2023/03/12 11:50:41;;;;;;;15.50;15.00;;;10.30;99.90;;;;;;4920565;29;21028;-76
2023/03/12 11:53:38;;;;;;;15.93;15.43;;;10.20;1.00;;;;;;4919547;29;20516;-75
2023/03/12 11:56:22;;;;;;;15.60;15.20;;;10.30;99.90;;;;;;4923578;29;20501;-76
2023/03/12 11:59:02;;;;;;;15.70;15.30;;;10.50;99.90;;;;;;4919083;29;20459;-76
2023/03/12 12:01:42;;;;;;;16.67;16.07;;;10.60;99.90;;;;;;4921224;29;20490;-77
2023/03/12 12:04:37;;;;;;;16.30;15.57;;;10.80;99.90;;;;;;4924030;29;20460;-77
2023/03/12 12:07:16;;;;;;;17.20;16.33;;;10.80;99.90;;;;;;4921837;29;20468;-76
2023/03/12 12:09:50;;;;;;;15.97;15.47;;;10.80;1.00;;;;;;4922050;29;20873;-75
2023/03/12 12:12:33;;;;;;;16.33;15.80;;;10.80;1.00;;;;;;4922946;29;20452;-75
2023/03/12 12:15:13;;;;;;;17.10;16.50;;;10.90;99.90;;;;;;4918451;29;20574;-76
2023/03/12 12:17:54;;;;;;;16.20;15.60;;;11.10;99.90;;;;;;4921054;29;20560;-77
2023/03/12 12:20:33;;;;;;;17.20;16.60;;;11.10;1.00;;;;;;4919290;29;21037;-76
2023/03/12 12:23:14;;;;;;;16.73;16.23;;;11.20;1.00;;;;;;4917397;29;21131;-76
2023/03/12 12:26:06;;;;;;;17.00;16.30;;;11.20;99.90;;;;;;4909166;29;20604;-75
2023/03/12 12:28:59;;;;;;;17.20;16.50;;;11.30;99.90;;;;;;4914008;29;20459;-76
2023/03/12 12:31:37;;;;;;;17.53;16.43;;;11.40;99.90;;;;;;4916308;29;21003;-78
2023/03/12 12:34:29;;;;;;;17.03;16.33;;;11.50;99.90;;;;;;4913087;29;20462;-75
2023/03/12 12:37:18;;;;;;;17.60;16.90;;;11.40;99.90;;;;;;4919292;29;20523;-75
2023/03/12 12:39:52;;;;;;;18.27;17.30;;;11.40;99.90;;;;;;4914770;29;20488;-75
2023/03/12 12:42:26;;;;;;;18.00;17.23;;;11.40;99.90;;;;;;4917190;29;20499;-76
2023/03/12 12:44:57;;;;;;;18.13;17.23;;;11.30;66.30;;;;;;4914064;29;20458;-75
2023/03/12 12:47:38;;;;;;;17.20;16.40;;;11.30;99.90;;;;;;4910570;29;20458;-77
2023/03/12 12:50:14;;;;;;;17.17;16.47;;;11.30;99.90;;;;;;4914060;29;20575;-74
2023/03/12 12:52:43;;;;;;;17.65;16.75;;;11.20;1.00;;;;;;4917734;29;20456;-75
2023/03/12 12:55:19;;;;;;;16.53;15.93;;;11.10;1.00;;;;;;4915257;29;20193;-78
2023/03/12 12:57:54;;;;;;;17.30;16.50;;;11.00;1.00;;;;;;4920661;29;20465;-77
2023/03/12 13:00:39;;;;;;;16.50;16.00;;;11.10;1.00;;;;;;4919700;29;20479;-78
2023/03/12 13:03:14;;;;;;;16.67;15.80;;;11.00;99.90;;;;;;4921262;29;20453;-77
2023/03/12 13:05:49;;;;;;;16.63;15.90;;;11.00;1.00;;;;;;4918008;29;20691;-77
2023/03/12 13:09:13;;;;;;;17.53;16.53;;;11.10;1.00;;;;;;4923293;29;20448;-77